sensor_id;sensor_type;location;lat;lon;timestamp;P1;durP1;ratioP1;P2;durP2;ratioP2
41077;SDS011;26823;42.662;23.352;2022-07-01T00:02:24;6.35;;;3.40;;
41077;SDS011;26823;42.662;23.352;2022-07-01T00:04:50;4.10;;;3.65;;
41077;SDS011;26823;42.662;23.352;2022-07-01T00:07:16;6.00;;;3.83;;
41077;SDS011;26823;42.662;23.352;2022-07-01T00:09:42;4.07;;;3.60;;
41077;SDS011;26823;42.662;23.352;2022-07-01T00:12:07;5.75;;;3.75;;
41077;SDS011;26823;42.662;23.352;2022-07-01T00:14:33;9.27;;;4.97;;
41077;SDS011;26823;42.662;23.352;2022-07-01T00:16:58;9.73;;;5.20;;
41077;SDS011;26823;42.662;23.352;2022-07-01T00:19:24;6.97;;;3.55;;
41077;SDS011;26823;42.662;23.352;2022-07-01T00:21:50;6.75;;;5.32;;
41077;SDS011;26823;42.662;23.352;2022-07-01T00:24:16;5.00;;;4.50;;
41077;SDS011;26823;42.662;23.352;2022-07-01T00:26:41;4.05;;;3.58;;
41077;SDS011;26823;42.662;23.352;2022-07-01T00:29:06;4.85;;;3.40;;
41077;SDS011;26823;42.662;23.352;2022-07-01T00:31:32;3.83;;;3.10;;
41077;SDS011;26823;42.662;23.352;2022-07-01T00:33:57;5.07;;;3.50;;
41077;SDS011;26823;42.662;23.352;2022-07-01T00:36:23;3.78;;;3.38;;
41077;SDS011;26823;42.662;23.352;2022-07-01T00:38:48;5.07;;;3.90;;
41077;SDS011;26823;42.662;23.352;2022-07-01T00:41:14;5.32;;;4.03;;
41077;SDS011;26823;42.662;23.352;2022-07-01T00:43:39;7.43;;;4.25;;
41077;SDS011;26823;42.662;23.352;2022-07-01T00:46:05;7.88;;;3.55;;
41077;SDS011;26823;42.662;23.352;2022-07-01T00:48:31;3.80;;;3.50;;
41077;SDS011;26823;42.662;23.352;2022-07-01T00:50:58;8.00;;;4.40;;
41077;SDS011;26823;42.662;23.352;2022-07-01T00:53:24;4.95;;;4.05;;
41077;SDS011;26823;42.662;23.352;2022-07-01T00:55:50;5.05;;;3.30;;
41077;SDS011;26823;42.662;23.352;2022-07-01T00:58:16;7.68;;;3.50;;
41077;SDS011;26823;42.662;23.352;2022-07-01T01:00:41;7.18;;;3.85;;
41077;SDS011;26823;42.662;23.352;2022-07-01T01:03:07;5.93;;;3.55;;
41077;SDS011;26823;42.662;23.352;2022-07-01T01:05:36;4.57;;;4.15;;
41077;SDS011;26823;42.662;23.352;2022-07-01T01:08:01;3.78;;;3.38;;
41077;SDS011;26823;42.662;23.352;2022-07-01T01:10:27;6.13;;;4.10;;
41077;SDS011;26823;42.662;23.352;2022-07-01T01:12:53;4.50;;;4.10;;
41077;SDS011;26823;42.662;23.352;2022-07-01T01:15:20;3.92;;;3.53;;
41077;SDS011;26823;42.662;23.352;2022-07-01T01:17:46;4.90;;;3.55;;
41077;SDS011;26823;42.662;23.352;2022-07-01T01:20:15;3.65;;;3.28;;
41077;SDS011;26823;42.662;23.352;2022-07-01T01:22:42;4.45;;;3.45;;
41077;SDS011;26823;42.662;23.352;2022-07-01T01:25:09;6.53;;;3.58;;
41077;SDS011;26823;42.662;23.352;2022-07-01T01:27:34;7.97;;;4.20;;
41077;SDS011;26823;42.662;23.352;2022-07-01T01:30:02;11.93;;;3.97;;
41077;SDS011;26823;42.662;23.352;2022-07-01T01:32:30;6.07;;;4.60;;
41077;SDS011;26823;42.662;23.352;2022-07-01T01:34:55;8.57;;;4.93;;
41077;SDS011;26823;42.662;23.352;2022-07-01T01:37:21;4.45;;;3.80;;
41077;SDS011;26823;42.662;23.352;2022-07-01T01:39:46;6.43;;;4.05;;
41077;SDS011;26823;42.662;23.352;2022-07-01T01:42:11;6.30;;;3.53;;
41077;SDS011;26823;42.662;23.352;2022-07-01T01:44:37;6.45;;;3.70;;
41077;SDS011;26823;42.662;23.352;2022-07-01T01:47:02;7.10;;;4.13;;
41077;SDS011;26823;42.662;23.352;2022-07-01T01:49:28;5.72;;;3.92;;
41077;SDS011;26823;42.662;23.352;2022-07-01T01:51:54;4.47;;;3.78;;
41077;SDS011;26823;42.662;23.352;2022-07-01T01:54:21;6.43;;;3.70;;
41077;SDS011;26823;42.662;23.352;2022-07-01T01:56:47;7.40;;;3.80;;
41077;SDS011;26823;42.662;23.352;2022-07-01T01:59:12;4.28;;;3.88;;
41077;SDS011;26823;42.662;23.352;2022-07-01T02:01:38;7.90;;;3.95;;
41077;SDS011;26823;42.662;23.352;2022-07-01T02:04:03;5.13;;;4.00;;
41077;SDS011;26823;42.662;23.352;2022-07-01T02:06:28;8.60;;;4.43;;
41077;SDS011;26823;42.662;23.352;2022-07-01T02:08:54;5.80;;;4.78;;
41077;SDS011;26823;42.662;23.352;2022-07-01T02:11:20;6.13;;;4.18;;
41077;SDS011;26823;42.662;23.352;2022-07-01T02:13:45;6.38;;;4.15;;
41077;SDS011;26823;42.662;23.352;2022-07-01T02:16:11;8.57;;;4.70;;
41077;SDS011;26823;42.662;23.352;2022-07-01T02:18:36;5.57;;;4.85;;
41077;SDS011;26823;42.662;23.352;2022-07-01T02:21:02;7.85;;;4.72;;
41077;SDS011;26823;42.662;23.352;2022-07-01T02:23:27;5.03;;;4.63;;
41077;SDS011;26823;42.662;23.352;2022-07-01T02:25:54;7.97;;;4.53;;
41077;SDS011;26823;42.662;23.352;2022-07-01T02:28:20;9.13;;;4.97;;
41077;SDS011;26823;42.662;23.352;2022-07-01T02:30:45;5.32;;;4.80;;
41077;SDS011;26823;42.662;23.352;2022-07-01T02:33:11;7.32;;;4.93;;
41077;SDS011;26823;42.662;23.352;2022-07-01T02:35:37;6.47;;;4.85;;
41077;SDS011;26823;42.662;23.352;2022-07-01T02:38:04;5.80;;;4.50;;
41077;SDS011;26823;42.662;23.352;2022-07-01T02:40:30;8.73;;;4.80;;
41077;SDS011;26823;42.662;23.352;2022-07-01T02:42:56;9.25;;;4.93;;
41077;SDS011;26823;42.662;23.352;2022-07-01T02:45:21;7.28;;;4.78;;
41077;SDS011;26823;42.662;23.352;2022-07-01T02:47:47;6.22;;;4.80;;
41077;SDS011;26823;42.662;23.352;2022-07-01T02:50:13;4.97;;;4.57;;
41077;SDS011;26823;42.662;23.352;2022-07-01T02:52:40;9.70;;;6.72;;
41077;SDS011;26823;42.662;23.352;2022-07-01T02:55:07;5.78;;;5.18;;
41077;SDS011;26823;42.662;23.352;2022-07-01T02:57:34;6.38;;;5.63;;
41077;SDS011;26823;42.662;23.352;2022-07-01T03:00:00;6.80;;;5.15;;
41077;SDS011;26823;42.662;23.352;2022-07-01T03:02:26;6.18;;;5.57;;
41077;SDS011;26823;42.662;23.352;2022-07-01T03:04:52;10.40;;;6.80;;
41077;SDS011;26823;42.662;23.352;2022-07-01T03:07:19;10.05;;;6.00;;
41077;SDS011;26823;42.662;23.352;2022-07-01T03:09:46;11.27;;;6.60;;
41077;SDS011;26823;42.662;23.352;2022-07-01T03:12:12;6.97;;;5.60;;
41077;SDS011;26823;42.662;23.352;2022-07-01T03:15:00;9.75;;;5.82;;
41077;SDS011;26823;42.662;23.352;2022-07-01T03:17:33;9.38;;;5.75;;
41077;SDS011;26823;42.662;23.352;2022-07-01T03:19:59;9.82;;;5.57;;
41077;SDS011;26823;42.662;23.352;2022-07-01T03:22:26;9.85;;;6.05;;
41077;SDS011;26823;42.662;23.352;2022-07-01T03:24:54;7.78;;;5.47;;
41077;SDS011;26823;42.662;23.352;2022-07-01T03:27:21;12.05;;;5.78;;
41077;SDS011;26823;42.662;23.352;2022-07-01T03:29:46;7.50;;;6.20;;
41077;SDS011;26823;42.662;23.352;2022-07-01T03:32:12;9.98;;;6.40;;
41077;SDS011;26823;42.662;23.352;2022-07-01T03:34:39;9.93;;;6.57;;
41077;SDS011;26823;42.662;23.352;2022-07-01T03:37:05;8.50;;;5.70;;
41077;SDS011;26823;42.662;23.352;2022-07-01T03:39:32;7.78;;;5.97;;
41077;SDS011;26823;42.662;23.352;2022-07-01T03:41:59;7.82;;;6.57;;
41077;SDS011;26823;42.662;23.352;2022-07-01T03:44:24;10.40;;;6.20;;
41077;SDS011;26823;42.662;23.352;2022-07-01T03:46:50;7.43;;;6.22;;
41077;SDS011;26823;42.662;23.352;2022-07-01T03:49:15;6.65;;;5.95;;
41077;SDS011;26823;42.662;23.352;2022-07-01T03:51:41;7.70;;;6.00;;
41077;SDS011;26823;42.662;23.352;2022-07-01T03:54:06;7.60;;;6.07;;
41077;SDS011;26823;42.662;23.352;2022-07-01T03:56:50;10.07;;;5.90;;
41077;SDS011;26823;42.662;23.352;2022-07-01T03:59:15;7.75;;;6.10;;
41077;SDS011;26823;42.662;23.352;2022-07-01T04:01:41;9.50;;;6.22;;
41077;SDS011;26823;42.662;23.352;2022-07-01T04:04:06;9.15;;;6.68;;
41077;SDS011;26823;42.662;23.352;2022-07-01T04:06:32;10.98;;;6.85;;
41077;SDS011;26823;42.662;23.352;2022-07-01T04:08:57;8.93;;;6.50;;
41077;SDS011;26823;42.662;23.352;2022-07-01T04:11:23;12.45;;;6.75;;
41077;SDS011;26823;42.662;23.352;2022-07-01T04:13:49;7.35;;;6.53;;
41077;SDS011;26823;42.662;23.352;2022-07-01T04:16:17;10.68;;;6.20;;
41077;SDS011;26823;42.662;23.352;2022-07-01T04:18:43;9.80;;;7.00;;
41077;SDS011;26823;42.662;23.352;2022-07-01T04:21:10;11.65;;;6.70;;
41077;SDS011;26823;42.662;23.352;2022-07-01T04:23:54;14.05;;;7.60;;
41077;SDS011;26823;42.662;23.352;2022-07-01T04:26:21;14.52;;;6.60;;
41077;SDS011;26823;42.662;23.352;2022-07-01T04:28:50;12.48;;;6.75;;
41077;SDS011;26823;42.662;23.352;2022-07-01T04:31:19;6.60;;;5.90;;
41077;SDS011;26823;42.662;23.352;2022-07-01T04:33:46;9.85;;;6.70;;
41077;SDS011;26823;42.662;23.352;2022-07-01T04:36:16;15.70;;;6.35;;
41077;SDS011;26823;42.662;23.352;2022-07-01T04:38:43;17.60;;;6.63;;
41077;SDS011;26823;42.662;23.352;2022-07-01T04:41:09;8.63;;;6.50;;
41077;SDS011;26823;42.662;23.352;2022-07-01T04:43:53;7.53;;;6.50;;
41077;SDS011;26823;42.662;23.352;2022-07-01T04:46:18;11.13;;;6.80;;
41077;SDS011;26823;42.662;23.352;2022-07-01T04:48:43;8.10;;;6.30;;
41077;SDS011;26823;42.662;23.352;2022-07-01T04:51:09;6.93;;;5.93;;
41077;SDS011;26823;42.662;23.352;2022-07-01T04:53:34;8.75;;;6.28;;
41077;SDS011;26823;42.662;23.352;2022-07-01T04:56:00;10.07;;;6.88;;
41077;SDS011;26823;42.662;23.352;2022-07-01T04:58:26;11.90;;;6.50;;
41077;SDS011;26823;42.662;23.352;2022-07-01T05:00:51;9.75;;;6.35;;
41077;SDS011;26823;42.662;23.352;2022-07-01T05:03:17;12.65;;;6.50;;
41077;SDS011;26823;42.662;23.352;2022-07-01T05:05:43;8.38;;;6.57;;
41077;SDS011;26823;42.662;23.352;2022-07-01T05:08:09;7.88;;;6.93;;
41077;SDS011;26823;42.662;23.352;2022-07-01T05:10:34;9.88;;;7.78;;
41077;SDS011;26823;42.662;23.352;2022-07-01T05:13:00;13.77;;;7.10;;
41077;SDS011;26823;42.662;23.352;2022-07-01T05:15:25;12.85;;;7.35;;
41077;SDS011;26823;42.662;23.352;2022-07-01T05:17:51;8.27;;;6.20;;
41077;SDS011;26823;42.662;23.352;2022-07-01T05:20:35;9.82;;;6.93;;
41077;SDS011;26823;42.662;23.352;2022-07-01T05:23:19;13.25;;;7.72;;
41077;SDS011;26823;42.662;23.352;2022-07-01T05:25:44;10.50;;;6.57;;
41077;SDS011;26823;42.662;23.352;2022-07-01T05:28:09;10.00;;;6.88;;
41077;SDS011;26823;42.662;23.352;2022-07-01T05:30:35;12.57;;;6.88;;
41077;SDS011;26823;42.662;23.352;2022-07-01T05:33:00;9.50;;;6.65;;
41077;SDS011;26823;42.662;23.352;2022-07-01T05:35:26;8.27;;;6.47;;
41077;SDS011;26823;42.662;23.352;2022-07-01T05:37:51;10.50;;;6.55;;
41077;SDS011;26823;42.662;23.352;2022-07-01T05:40:17;10.45;;;7.13;;
41077;SDS011;26823;42.662;23.352;2022-07-01T05:42:42;11.20;;;7.13;;
41077;SDS011;26823;42.662;23.352;2022-07-01T05:45:08;8.63;;;5.65;;
41077;SDS011;26823;42.662;23.352;2022-07-01T05:47:33;10.48;;;6.50;;
41077;SDS011;26823;42.662;23.352;2022-07-01T05:49:59;13.07;;;6.65;;
41077;SDS011;26823;42.662;23.352;2022-07-01T05:52:28;8.52;;;6.53;;
41077;SDS011;26823;42.662;23.352;2022-07-01T05:54:53;11.95;;;7.28;;
41077;SDS011;26823;42.662;23.352;2022-07-01T05:57:19;12.02;;;7.47;;
41077;SDS011;26823;42.662;23.352;2022-07-01T05:59:44;9.30;;;7.97;;
41077;SDS011;26823;42.662;23.352;2022-07-01T06:02:10;16.38;;;8.30;;
41077;SDS011;26823;42.662;23.352;2022-07-01T06:04:35;10.27;;;7.35;;
41077;SDS011;26823;42.662;23.352;2022-07-01T06:07:01;10.77;;;7.15;;
41077;SDS011;26823;42.662;23.352;2022-07-01T06:09:26;13.50;;;7.57;;
41077;SDS011;26823;42.662;23.352;2022-07-01T06:11:52;12.27;;;7.78;;
41077;SDS011;26823;42.662;23.352;2022-07-01T06:14:17;10.75;;;7.55;;
41077;SDS011;26823;42.662;23.352;2022-07-01T06:16:42;16.67;;;8.20;;
41077;SDS011;26823;42.662;23.352;2022-07-01T06:19:08;10.90;;;8.27;;
41077;SDS011;26823;42.662;23.352;2022-07-01T06:21:33;16.08;;;8.73;;
41077;SDS011;26823;42.662;23.352;2022-07-01T06:23:59;12.15;;;7.65;;
41077;SDS011;26823;42.662;23.352;2022-07-01T06:26:24;12.93;;;9.02;;
41077;SDS011;26823;42.662;23.352;2022-07-01T06:28:50;14.55;;;7.93;;
41077;SDS011;26823;42.662;23.352;2022-07-01T06:31:16;13.50;;;8.02;;
41077;SDS011;26823;42.662;23.352;2022-07-01T06:33:42;17.38;;;8.00;;
41077;SDS011;26823;42.662;23.352;2022-07-01T06:36:07;20.35;;;7.13;;
41077;SDS011;26823;42.662;23.352;2022-07-01T06:38:33;12.10;;;8.02;;
41077;SDS011;26823;42.662;23.352;2022-07-01T06:40:58;13.00;;;7.78;;
41077;SDS011;26823;42.662;23.352;2022-07-01T06:43:42;13.77;;;7.50;;
41077;SDS011;26823;42.662;23.352;2022-07-01T06:46:08;15.07;;;7.93;;
41077;SDS011;26823;42.662;23.352;2022-07-01T06:48:34;10.45;;;7.70;;
41077;SDS011;26823;42.662;23.352;2022-07-01T06:51:00;12.48;;;6.80;;
41077;SDS011;26823;42.662;23.352;2022-07-01T06:53:26;14.43;;;6.95;;
41077;SDS011;26823;42.662;23.352;2022-07-01T06:55:52;14.13;;;6.93;;
41077;SDS011;26823;42.662;23.352;2022-07-01T06:58:17;11.55;;;7.18;;
41077;SDS011;26823;42.662;23.352;2022-07-01T07:00:43;12.45;;;7.45;;
41077;SDS011;26823;42.662;23.352;2022-07-01T07:03:09;9.00;;;7.88;;
41077;SDS011;26823;42.662;23.352;2022-07-01T07:05:34;14.45;;;7.00;;
41077;SDS011;26823;42.662;23.352;2022-07-01T07:08:00;15.60;;;8.63;;
41077;SDS011;26823;42.662;23.352;2022-07-01T07:10:25;11.85;;;8.07;;
41077;SDS011;26823;42.662;23.352;2022-07-01T07:12:50;16.08;;;8.00;;
41077;SDS011;26823;42.662;23.352;2022-07-01T07:15:16;9.00;;;6.93;;
41077;SDS011;26823;42.662;23.352;2022-07-01T07:17:42;14.68;;;7.40;;
41077;SDS011;26823;42.662;23.352;2022-07-01T07:20:07;20.15;;;7.78;;
41077;SDS011;26823;42.662;23.352;2022-07-01T07:22:33;11.32;;;8.18;;
41077;SDS011;26823;42.662;23.352;2022-07-01T07:24:59;13.57;;;7.25;;
41077;SDS011;26823;42.662;23.352;2022-07-01T07:27:25;11.75;;;6.78;;
41077;SDS011;26823;42.662;23.352;2022-07-01T07:29:50;12.65;;;7.82;;
41077;SDS011;26823;42.662;23.352;2022-07-01T07:32:16;9.23;;;7.35;;
41077;SDS011;26823;42.662;23.352;2022-07-01T07:34:41;13.25;;;8.35;;
41077;SDS011;26823;42.662;23.352;2022-07-01T07:37:07;10.88;;;7.25;;
41077;SDS011;26823;42.662;23.352;2022-07-01T07:39:32;9.23;;;6.95;;
41077;SDS011;26823;42.662;23.352;2022-07-01T07:41:58;11.13;;;6.68;;
41077;SDS011;26823;42.662;23.352;2022-07-01T07:44:24;9.23;;;6.95;;
41077;SDS011;26823;42.662;23.352;2022-07-01T07:46:49;14.75;;;7.05;;
41077;SDS011;26823;42.662;23.352;2022-07-01T07:49:15;13.20;;;7.68;;
41077;SDS011;26823;42.662;23.352;2022-07-01T07:51:40;10.43;;;7.38;;
41077;SDS011;26823;42.662;23.352;2022-07-01T07:54:06;12.00;;;6.60;;
41077;SDS011;26823;42.662;23.352;2022-07-01T07:56:31;11.13;;;6.78;;
41077;SDS011;26823;42.662;23.352;2022-07-01T07:58:57;15.82;;;6.88;;
41077;SDS011;26823;42.662;23.352;2022-07-01T08:01:23;11.25;;;6.03;;
41077;SDS011;26823;42.662;23.352;2022-07-01T08:03:48;8.50;;;6.10;;
41077;SDS011;26823;42.662;23.352;2022-07-01T08:06:14;10.43;;;6.15;;
41077;SDS011;26823;42.662;23.352;2022-07-01T08:08:39;6.72;;;5.97;;
41077;SDS011;26823;42.662;23.352;2022-07-01T08:11:05;11.55;;;7.18;;
41077;SDS011;26823;42.662;23.352;2022-07-01T08:13:30;12.48;;;6.93;;
41077;SDS011;26823;42.662;23.352;2022-07-01T08:15:56;15.23;;;7.72;;
41077;SDS011;26823;42.662;23.352;2022-07-01T08:18:22;7.35;;;5.47;;
41077;SDS011;26823;42.662;23.352;2022-07-01T08:20:48;13.02;;;6.40;;
41077;SDS011;26823;42.662;23.352;2022-07-01T08:23:17;10.98;;;6.78;;
41077;SDS011;26823;42.662;23.352;2022-07-01T08:25:46;8.70;;;5.90;;
41077;SDS011;26823;42.662;23.352;2022-07-01T08:28:12;10.98;;;6.32;;
41077;SDS011;26823;42.662;23.352;2022-07-01T08:30:38;8.57;;;6.38;;
41077;SDS011;26823;42.662;23.352;2022-07-01T08:33:04;9.63;;;6.28;;
41077;SDS011;26823;42.662;23.352;2022-07-01T08:35:29;9.00;;;5.57;;
41077;SDS011;26823;42.662;23.352;2022-07-01T08:37:55;6.35;;;5.68;;
41077;SDS011;26823;42.662;23.352;2022-07-01T08:40:23;6.88;;;5.90;;
41077;SDS011;26823;42.662;23.352;2022-07-01T08:42:50;7.68;;;6.13;;
41077;SDS011;26823;42.662;23.352;2022-07-01T08:45:16;6.70;;;5.25;;
41077;SDS011;26823;42.662;23.352;2022-07-01T08:47:50;10.52;;;5.50;;
41077;SDS011;26823;42.662;23.352;2022-07-01T08:50:17;7.50;;;6.03;;
41077;SDS011;26823;42.662;23.352;2022-07-01T08:52:43;8.05;;;5.57;;
41077;SDS011;26823;42.662;23.352;2022-07-01T08:55:08;8.63;;;5.18;;
41077;SDS011;26823;42.662;23.352;2022-07-01T08:57:34;14.88;;;6.05;;
41077;SDS011;26823;42.662;23.352;2022-07-01T09:00:00;7.53;;;5.35;;
41077;SDS011;26823;42.662;23.352;2022-07-01T09:02:29;10.40;;;5.32;;
41077;SDS011;26823;42.662;23.352;2022-07-01T09:05:15;8.15;;;5.63;;
41077;SDS011;26823;42.662;23.352;2022-07-01T09:07:40;7.53;;;6.07;;
41077;SDS011;26823;42.662;23.352;2022-07-01T09:10:18;9.63;;;5.28;;
41077;SDS011;26823;42.662;23.352;2022-07-01T09:12:47;8.93;;;5.15;;
41077;SDS011;26823;42.662;23.352;2022-07-01T09:15:22;7.82;;;6.07;;
41077;SDS011;26823;42.662;23.352;2022-07-01T09:17:55;10.35;;;5.43;;
41077;SDS011;26823;42.662;23.352;2022-07-01T09:23:00;5.05;;;4.50;;
41077;SDS011;26823;42.662;23.352;2022-07-01T09:25:33;9.75;;;5.60;;
41077;SDS011;26823;42.662;23.352;2022-07-01T09:30:37;7.38;;;4.40;;
41077;SDS011;26823;42.662;23.352;2022-07-01T09:33:08;7.15;;;4.53;;
41077;SDS011;26823;42.662;23.352;2022-07-01T09:35:34;6.00;;;4.70;;
41077;SDS011;26823;42.662;23.352;2022-07-01T09:38:00;6.43;;;4.70;;
41077;SDS011;26823;42.662;23.352;2022-07-01T09:40:25;8.02;;;3.47;;
41077;SDS011;26823;42.662;23.352;2022-07-01T09:43:13;7.57;;;3.97;;
41077;SDS011;26823;42.662;23.352;2022-07-01T09:45:48;7.53;;;4.18;;
41077;SDS011;26823;42.662;23.352;2022-07-01T09:48:23;6.47;;;5.05;;
41077;SDS011;26823;42.662;23.352;2022-07-01T09:51:07;4.97;;;4.45;;
41077;SDS011;26823;42.662;23.352;2022-07-01T09:53:34;7.75;;;3.97;;
41077;SDS011;26823;42.662;23.352;2022-07-01T09:56:00;8.82;;;4.07;;
41077;SDS011;26823;42.662;23.352;2022-07-01T09:58:25;7.65;;;3.75;;
41077;SDS011;26823;42.662;23.352;2022-07-01T10:00:52;6.03;;;3.90;;
41077;SDS011;26823;42.662;23.352;2022-07-01T10:03:19;8.27;;;3.95;;
41077;SDS011;26823;42.662;23.352;2022-07-01T10:14:03;6.05;;;4.28;;
41077;SDS011;26823;42.662;23.352;2022-07-01T10:16:29;7.80;;;5.43;;
41077;SDS011;26823;42.662;23.352;2022-07-01T10:18:56;9.48;;;4.30;;
41077;SDS011;26823;42.662;23.352;2022-07-01T10:21:28;11.52;;;4.45;;
41077;SDS011;26823;42.662;23.352;2022-07-01T10:26:59;7.22;;;4.82;;
41077;SDS011;26823;42.662;23.352;2022-07-01T10:29:26;7.00;;;4.50;;
41077;SDS011;26823;42.662;23.352;2022-07-01T10:31:59;7.75;;;3.75;;
41077;SDS011;26823;42.662;23.352;2022-07-01T10:34:48;5.32;;;3.50;;
41077;SDS011;26823;42.662;23.352;2022-07-01T10:37:15;6.25;;;3.47;;
41077;SDS011;26823;42.662;23.352;2022-07-01T10:42:37;4.93;;;3.70;;
41077;SDS011;26823;42.662;23.352;2022-07-01T10:45:23;8.90;;;3.05;;
41077;SDS011;26823;42.662;23.352;2022-07-01T10:47:49;4.22;;;3.38;;
41077;SDS011;26823;42.662;23.352;2022-07-01T10:50:48;5.97;;;3.17;;
41077;SDS011;26823;42.662;23.352;2022-07-01T10:53:14;12.90;;;3.90;;
41077;SDS011;26823;42.662;23.352;2022-07-01T10:55:41;4.53;;;3.45;;
41077;SDS011;26823;42.662;23.352;2022-07-01T10:58:10;3.97;;;3.58;;
41077;SDS011;26823;42.662;23.352;2022-07-01T11:00:36;4.05;;;3.60;;
41077;SDS011;26823;42.662;23.352;2022-07-01T11:03:16;4.65;;;3.78;;
41077;SDS011;26823;42.662;23.352;2022-07-01T11:05:44;5.68;;;3.42;;
41077;SDS011;26823;42.662;23.352;2022-07-01T11:08:11;4.00;;;3.55;;
41077;SDS011;26823;42.662;23.352;2022-07-01T11:10:37;6.05;;;3.63;;
41077;SDS011;26823;42.662;23.352;2022-07-01T11:13:06;8.82;;;3.88;;
41077;SDS011;26823;42.662;23.352;2022-07-01T11:15:32;16.13;;;3.85;;
41077;SDS011;26823;42.662;23.352;2022-07-01T11:17:59;4.80;;;3.72;;
41077;SDS011;26823;42.662;23.352;2022-07-01T11:20:25;5.75;;;3.78;;
41077;SDS011;26823;42.662;23.352;2022-07-01T11:22:52;7.95;;;4.10;;
41077;SDS011;26823;42.662;23.352;2022-07-01T11:25:18;5.30;;;3.67;;
41077;SDS011;26823;42.662;23.352;2022-07-01T11:27:45;4.45;;;3.75;;
41077;SDS011;26823;42.662;23.352;2022-07-01T11:30:13;4.95;;;3.30;;
41077;SDS011;26823;42.662;23.352;2022-07-01T11:32:40;5.30;;;3.80;;
41077;SDS011;26823;42.662;23.352;2022-07-01T11:35:14;3.92;;;3.55;;
41077;SDS011;26823;42.662;23.352;2022-07-01T11:38:06;4.32;;;3.90;;
41077;SDS011;26823;42.662;23.352;2022-07-01T11:40:56;3.63;;;3.33;;
41077;SDS011;26823;42.662;23.352;2022-07-01T11:43:24;4.60;;;3.72;;
41077;SDS011;26823;42.662;23.352;2022-07-01T11:45:52;5.95;;;3.70;;
41077;SDS011;26823;42.662;23.352;2022-07-01T11:51:17;3.95;;;3.35;;
41077;SDS011;26823;42.662;23.352;2022-07-01T11:53:45;6.10;;;3.47;;
41077;SDS011;26823;42.662;23.352;2022-07-01T11:56:14;6.05;;;3.55;;
41077;SDS011;26823;42.662;23.352;2022-07-01T11:58:50;8.75;;;3.50;;
41077;SDS011;26823;42.662;23.352;2022-07-01T12:01:22;4.45;;;3.20;;
41077;SDS011;26823;42.662;23.352;2022-07-01T12:04:02;6.95;;;3.67;;
41077;SDS011;26823;42.662;23.352;2022-07-01T12:06:29;4.07;;;3.78;;
41077;SDS011;26823;42.662;23.352;2022-07-01T12:08:56;4.32;;;3.60;;
41077;SDS011;26823;42.662;23.352;2022-07-01T12:11:22;5.38;;;3.05;;
41077;SDS011;26823;42.662;23.352;2022-07-01T12:13:48;4.22;;;3.55;;
41077;SDS011;26823;42.662;23.352;2022-07-01T12:16:14;6.03;;;3.20;;
41077;SDS011;26823;42.662;23.352;2022-07-01T12:21:17;4.30;;;3.25;;
41077;SDS011;26823;42.662;23.352;2022-07-01T12:24:01;9.02;;;3.65;;
41077;SDS011;26823;42.662;23.352;2022-07-01T12:26:30;6.57;;;3.50;;
41077;SDS011;26823;42.662;23.352;2022-07-01T12:28:55;4.03;;;3.50;;
41077;SDS011;26823;42.662;23.352;2022-07-01T12:31:21;4.85;;;3.03;;
41077;SDS011;26823;42.662;23.352;2022-07-01T12:33:50;4.00;;;3.70;;
41077;SDS011;26823;42.662;23.352;2022-07-01T12:36:17;4.35;;;3.75;;
41077;SDS011;26823;42.662;23.352;2022-07-01T12:38:43;5.40;;;3.38;;
41077;SDS011;26823;42.662;23.352;2022-07-01T12:41:30;5.40;;;3.13;;
41077;SDS011;26823;42.662;23.352;2022-07-01T12:43:55;3.15;;;2.88;;
41077;SDS011;26823;42.662;23.352;2022-07-01T12:46:28;3.88;;;3.25;;
41077;SDS011;26823;42.662;23.352;2022-07-01T12:48:54;3.50;;;3.00;;
41077;SDS011;26823;42.662;23.352;2022-07-01T12:51:20;4.85;;;2.97;;
41077;SDS011;26823;42.662;23.352;2022-07-01T12:53:45;5.10;;;3.13;;
41077;SDS011;26823;42.662;23.352;2022-07-01T12:56:32;5.75;;;3.60;;
41077;SDS011;26823;42.662;23.352;2022-07-01T12:58:57;5.85;;;3.83;;
41077;SDS011;26823;42.662;23.352;2022-07-01T13:01:23;8.15;;;4.10;;
41077;SDS011;26823;42.662;23.352;2022-07-01T13:03:48;6.80;;;4.20;;
41077;SDS011;26823;42.662;23.352;2022-07-01T13:06:14;7.53;;;4.03;;
41077;SDS011;26823;42.662;23.352;2022-07-01T13:08:39;7.45;;;4.25;;
41077;SDS011;26823;42.662;23.352;2022-07-01T13:11:05;5.43;;;4.80;;
41077;SDS011;26823;42.662;23.352;2022-07-01T13:13:33;6.95;;;4.47;;
41077;SDS011;26823;42.662;23.352;2022-07-01T13:15:59;9.50;;;4.20;;
41077;SDS011;26823;42.662;23.352;2022-07-01T13:18:24;8.43;;;4.70;;
41077;SDS011;26823;42.662;23.352;2022-07-01T13:20:50;7.57;;;4.13;;
41077;SDS011;26823;42.662;23.352;2022-07-01T13:23:16;7.78;;;4.20;;
41077;SDS011;26823;42.662;23.352;2022-07-01T13:25:42;8.40;;;4.28;;
41077;SDS011;26823;42.662;23.352;2022-07-01T13:28:07;7.10;;;3.70;;
41077;SDS011;26823;42.662;23.352;2022-07-01T13:30:33;4.57;;;3.80;;
41077;SDS011;26823;42.662;23.352;2022-07-01T13:33:00;7.50;;;4.15;;
41077;SDS011;26823;42.662;23.352;2022-07-01T13:35:26;4.50;;;4.10;;
41077;SDS011;26823;42.662;23.352;2022-07-01T13:37:51;6.07;;;4.07;;
41077;SDS011;26823;42.662;23.352;2022-07-01T13:40:17;9.05;;;4.18;;
41077;SDS011;26823;42.662;23.352;2022-07-01T13:42:43;10.27;;;5.45;;
41077;SDS011;26823;42.662;23.352;2022-07-01T13:45:09;4.95;;;4.47;;
41077;SDS011;26823;42.662;23.352;2022-07-01T13:47:34;4.45;;;3.75;;
41077;SDS011;26823;42.662;23.352;2022-07-01T13:50:00;7.28;;;4.68;;
41077;SDS011;26823;42.662;23.352;2022-07-01T13:52:26;8.48;;;4.20;;
41077;SDS011;26823;42.662;23.352;2022-07-01T13:54:55;10.85;;;4.53;;
41077;SDS011;26823;42.662;23.352;2022-07-01T13:57:24;6.63;;;4.57;;
41077;SDS011;26823;42.662;23.352;2022-07-01T13:59:49;8.65;;;4.95;;
41077;SDS011;26823;42.662;23.352;2022-07-01T14:02:15;6.00;;;4.47;;
41077;SDS011;26823;42.662;23.352;2022-07-01T14:04:43;6.22;;;4.72;;
41077;SDS011;26823;42.662;23.352;2022-07-01T14:07:08;5.05;;;4.55;;
41077;SDS011;26823;42.662;23.352;2022-07-01T14:09:34;5.25;;;4.20;;
41077;SDS011;26823;42.662;23.352;2022-07-01T14:12:00;5.50;;;4.50;;
41077;SDS011;26823;42.662;23.352;2022-07-01T14:14:26;5.00;;;4.38;;
41077;SDS011;26823;42.662;23.352;2022-07-01T14:16:51;4.90;;;4.28;;
41077;SDS011;26823;42.662;23.352;2022-07-01T14:19:17;4.72;;;4.25;;
41077;SDS011;26823;42.662;23.352;2022-07-01T14:21:42;10.35;;;4.35;;
41077;SDS011;26823;42.662;23.352;2022-07-01T14:24:08;7.13;;;4.18;;
41077;SDS011;26823;42.662;23.352;2022-07-01T14:26:33;6.00;;;4.40;;
41077;SDS011;26823;42.662;23.352;2022-07-01T14:28:58;6.75;;;4.57;;
41077;SDS011;26823;42.662;23.352;2022-07-01T14:31:24;10.48;;;4.60;;
41077;SDS011;26823;42.662;23.352;2022-07-01T14:33:49;4.28;;;3.88;;
41077;SDS011;26823;42.662;23.352;2022-07-01T14:36:15;7.50;;;4.05;;
41077;SDS011;26823;42.662;23.352;2022-07-01T14:38:40;6.55;;;4.63;;
41077;SDS011;26823;42.662;23.352;2022-07-01T14:41:06;5.47;;;4.75;;
41077;SDS011;26823;42.662;23.352;2022-07-01T14:43:31;8.52;;;4.60;;
41077;SDS011;26823;42.662;23.352;2022-07-01T14:45:57;5.45;;;4.10;;
41077;SDS011;26823;42.662;23.352;2022-07-01T14:48:23;4.20;;;3.90;;
41077;SDS011;26823;42.662;23.352;2022-07-01T14:50:48;9.70;;;5.78;;
41077;SDS011;26823;42.662;23.352;2022-07-01T14:53:14;6.25;;;4.63;;
41077;SDS011;26823;42.662;23.352;2022-07-01T14:55:39;5.10;;;4.55;;
41077;SDS011;26823;42.662;23.352;2022-07-01T14:58:05;5.93;;;4.22;;